sensor_id;sensor_type;location;lat;lon;timestamp;temperature;humidity
4431;DHT22;2228;48.140;11.488;2023-06-26T16:39:41;28.30;99.90
4431;DHT22;2228;48.140;11.488;2023-06-26T16:42:08;28.20;99.90
4431;DHT22;2228;48.140;11.488;2023-06-26T16:44:35;28.20;99.90
4431;DHT22;2228;48.140;11.488;2023-06-26T16:47:02;28.20;99.90
4431;DHT22;2228;48.140;11.488;2023-06-26T16:49:29;28.20;99.90
4431;DHT22;2228;48.140;11.488;2023-06-26T16:51:56;28.20;99.90
4431;DHT22;2228;48.140;11.488;2023-06-26T16:54:23;28.10;99.90
4431;DHT22;2228;48.140;11.488;2023-06-26T16:56:52;28.10;99.90
4431;DHT22;2228;48.140;11.488;2023-06-26T16:59:19;28.00;99.90
4431;DHT22;2228;48.140;11.488;2023-06-26T17:01:46;28.00;99.90
4431;DHT22;2228;48.140;11.488;2023-06-26T17:04:13;28.00;99.90
4431;DHT22;2228;48.140;11.488;2023-06-26T17:06:40;27.90;99.90
4431;DHT22;2228;48.140;11.488;2023-06-26T17:09:09;27.90;99.90
4431;DHT22;2228;48.140;11.488;2023-06-26T17:11:36;27.90;99.90
4431;DHT22;2228;48.140;11.488;2023-06-26T17:14:05;28.00;99.90
4431;DHT22;2228;48.140;11.488;2023-06-26T17:16:32;28.10;99.90
4431;DHT22;2228;48.140;11.488;2023-06-26T17:19:00;28.30;99.90
4431;DHT22;2228;48.140;11.488;2023-06-26T17:21:36;28.00;99.90
4431;DHT22;2228;48.140;11.488;2023-06-26T17:24:04;27.50;99.90
4431;DHT22;2228;48.140;11.488;2023-06-26T17:26:31;27.10;99.90
4431;DHT22;2228;48.140;11.488;2023-06-26T17:28:59;26.90;99.90
4431;DHT22;2228;48.140;11.488;2023-06-26T17:31:29;26.80;99.90
4431;DHT22;2228;48.140;11.488;2023-06-26T17:33:57;26.90;99.90
4431;DHT22;2228;48.140;11.488;2023-06-26T17:36:23;26.80;99.90
4431;DHT22;2228;48.140;11.488;2023-06-26T17:38:50;26.70;99.90
4431;DHT22;2228;48.140;11.488;2023-06-26T17:41:18;26.70;99.90
4431;DHT22;2228;48.140;11.488;2023-06-26T17:43:45;26.60;99.90
4431;DHT22;2228;48.140;11.488;2023-06-26T17:46:13;26.70;99.90
4431;DHT22;2228;48.140;11.488;2023-06-26T17:48:42;26.60;99.90
4431;DHT22;2228;48.140;11.488;2023-06-26T17:51:09;26.50;99.90
4431;DHT22;2228;48.140;11.488;2023-06-26T17:53:36;26.20;99.90
4431;DHT22;2228;48.140;11.488;2023-06-26T17:56:04;26.00;99.90
4431;DHT22;2228;48.140;11.488;2023-06-26T17:58:31;25.70;99.90
4431;DHT22;2228;48.140;11.488;2023-06-26T18:00:58;25.40;99.90
4431;DHT22;2228;48.140;11.488;2023-06-26T18:03:25;25.30;99.90
4431;DHT22;2228;48.140;11.488;2023-06-26T18:05:53;25.40;99.90
4431;DHT22;2228;48.140;11.488;2023-06-26T18:08:20;25.60;99.90
4431;DHT22;2228;48.140;11.488;2023-06-26T18:10:47;25.80;99.90
4431;DHT22;2228;48.140;11.488;2023-06-26T18:13:14;25.80;99.90
4431;DHT22;2228;48.140;11.488;2023-06-26T18:15:41;25.50;99.90
4431;DHT22;2228;48.140;11.488;2023-06-26T18:18:09;25.30;99.90
4431;DHT22;2228;48.140;11.488;2023-06-26T18:20:36;25.20;99.90
4431;DHT22;2228;48.140;11.488;2023-06-26T18:23:07;25.10;99.90
4431;DHT22;2228;48.140;11.488;2023-06-26T18:25:35;25.00;99.90
4431;DHT22;2228;48.140;11.488;2023-06-26T18:28:02;24.80;99.90
4431;DHT22;2228;48.140;11.488;2023-06-26T18:30:29;24.60;99.90
4431;DHT22;2228;48.140;11.488;2023-06-26T18:32:56;24.60;99.90
4431;DHT22;2228;48.140;11.488;2023-06-26T18:35:23;24.60;99.90
4431;DHT22;2228;48.140;11.488;2023-06-26T18:37:51;24.50;99.90
4431;DHT22;2228;48.140;11.488;2023-06-26T18:40:20;24.50;99.90
4431;DHT22;2228;48.140;11.488;2023-06-26T18:42:48;24.40;99.90
4431;DHT22;2228;48.140;11.488;2023-06-26T18:45:16;24.30;99.90
4431;DHT22;2228;48.140;11.488;2023-06-26T18:47:43;24.30;99.90
4431;DHT22;2228;48.140;11.488;2023-06-26T18:50:11;24.30;99.90
4431;DHT22;2228;48.140;11.488;2023-06-26T18:52:38;24.00;99.90
4431;DHT22;2228;48.140;11.488;2023-06-26T18:55:06;23.90;99.90
4431;DHT22;2228;48.140;11.488;2023-06-26T18:57:36;23.70;99.90
4431;DHT22;2228;48.140;11.488;2023-06-26T19:00:04;23.50;99.90
4431;DHT22;2228;48.140;11.488;2023-06-26T19:02:33;23.40;99.90
4431;DHT22;2228;48.140;11.488;2023-06-26T19:05:01;23.20;1.00
4431;DHT22;2228;48.140;11.488;2023-06-26T19:07:27;23.00;1.00
4431;DHT22;2228;48.140;11.488;2023-06-26T19:09:54;22.90;1.00
4431;DHT22;2228;48.140;11.488;2023-06-26T19:12:21;22.90;1.00
4431;DHT22;2228;48.140;11.488;2023-06-26T19:14:50;22.80;1.00
4431;DHT22;2228;48.140;11.488;2023-06-26T19:17:17;22.90;1.00
4431;DHT22;2228;48.140;11.488;2023-06-26T19:19:44;22.90;1.00
4431;DHT22;2228;48.140;11.488;2023-06-26T19:22:12;23.00;1.00
4431;DHT22;2228;48.140;11.488;2023-06-26T19:24:39;23.00;1.00
4431;DHT22;2228;48.140;11.488;2023-06-26T19:27:06;23.00;1.00
4431;DHT22;2228;48.140;11.488;2023-06-26T19:29:33;23.10;1.00
4431;DHT22;2228;48.140;11.488;2023-06-26T19:32:02;23.00;1.00
4431;DHT22;2228;48.140;11.488;2023-06-26T19:34:28;23.10;1.00
4431;DHT22;2228;48.140;11.488;2023-06-26T19:36:55;23.00;1.00
4431;DHT22;2228;48.140;11.488;2023-06-26T19:39:22;23.10;1.00
4431;DHT22;2228;48.140;11.488;2023-06-26T19:41:49;23.00;99.90
4431;DHT22;2228;48.140;11.488;2023-06-26T19:44:16;23.00;99.90
4431;DHT22;2228;48.140;11.488;2023-06-26T19:46:43;23.10;99.90
4431;DHT22;2228;48.140;11.488;2023-06-26T19:49:13;23.10;99.90
4431;DHT22;2228;48.140;11.488;2023-06-26T19:51:41;23.00;99.90
4431;DHT22;2228;48.140;11.488;2023-06-26T19:54:10;23.00;99.90
4431;DHT22;2228;48.140;11.488;2023-06-26T19:56:37;22.90;99.90
4431;DHT22;2228;48.140;11.488;2023-06-26T19:59:05;22.80;99.90
4431;DHT22;2228;48.140;11.488;2023-06-26T20:01:33;22.80;99.90
4431;DHT22;2228;48.140;11.488;2023-06-26T20:04:02;22.80;99.90
4431;DHT22;2228;48.140;11.488;2023-06-26T20:06:35;22.70;99.90
4431;DHT22;2228;48.140;11.488;2023-06-26T20:35:58;22.30;99.90
4431;DHT22;2228;48.140;11.488;2023-06-26T20:38:31;22.30;99.90
4431;DHT22;2228;48.140;11.488;2023-06-26T20:41:01;22.20;99.90
4431;DHT22;2228;48.140;11.488;2023-06-26T20:43:34;22.20;99.90
4431;DHT22;2228;48.140;11.488;2023-06-26T23:23:13;20.70;99.90
4431;DHT22;2228;48.140;11.488;2023-06-26T23:25:40;20.60;99.90
4431;DHT22;2228;48.140;11.488;2023-06-26T23:28:07;20.70;99.90
4431;DHT22;2228;48.140;11.488;2023-06-26T23:30:34;20.70;99.90
4431;DHT22;2228;48.140;11.488;2023-06-26T23:33:02;20.80;99.90
4431;DHT22;2228;48.140;11.488;2023-06-26T23:35:33;20.70;99.90
4431;DHT22;2228;48.140;11.488;2023-06-26T23:38:00;20.70;99.90
4431;DHT22;2228;48.140;11.488;2023-06-26T23:40:28;20.60;99.90
4431;DHT22;2228;48.140;11.488;2023-06-26T23:42:57;20.50;99.90
4431;DHT22;2228;48.140;11.488;2023-06-26T23:45:28;20.40;99.90
4431;DHT22;2228;48.140;11.488;2023-06-26T23:47:56;20.40;99.90
4431;DHT22;2228;48.140;11.488;2023-06-26T23:50:24;20.40;99.90
4431;DHT22;2228;48.140;11.488;2023-06-26T23:52:52;20.30;99.90
4431;DHT22;2228;48.140;11.488;2023-06-26T23:55:19;20.40;99.90
4431;DHT22;2228;48.140;11.488;2023-06-26T23:57:48;20.20;99.90
